Time;durP1;ratioP1;P1;durP2;ratioP2;P2;SDS_P1;SDS_P2;PMS_P1;PMS_P2;Temp;Humidity;BMP_temperature;BMP_pressure;BME280_temperature;BME280_humidity;BME280_pressure;Samples;Min_cycle;Max_cycle;Signal;HPM_P1;HPM_P2
2021/09/01 00:00:47;;;;;;;;;;;;;;;21.00;68.44;100194.61;442569;120;921558;-75
2021/09/01 00:01:50;;;;;;;;;;;;;;;21.01;68.46;100190.69;441050;119;921479;-75
2021/09/01 00:02:55;;;;;;;;;;;;;;;21.00;68.51;100192.66;441088;118;922032;-75
2021/09/01 00:03:58;;;;;;;;;;;;;;;21.00;68.37;100198.20;443582;119;921623;-74
2021/09/01 00:05:01;;;;;;;;;;;;;;;20.99;68.49;100199.32;451069;117;921558;-75
2021/09/01 00:06:05;;;;;;;;;;;;;;;20.98;68.56;100200.44;451410;116;921569;-75
2021/09/01 00:07:08;;;;;;;;;;;;;;;20.96;68.50;100194.34;451011;117;921458;-76
2021/09/01 00:08:11;;;;;;;;;;;;;;;20.96;68.27;100199.89;444012;119;921695;-73
2021/09/01 00:09:14;;;;;;;;;;;;;;;20.95;68.32;100197.44;451616;117;921386;-75
2021/09/01 00:10:18;;;;;;;;;;;;;;;20.92;68.37;100190.52;450050;117;921712;-74
2021/09/01 00:11:22;;;;;;;;;;;;;;;20.92;68.44;100200.77;450375;117;921559;-74
2021/09/01 00:12:27;;;;;;;;;;;;;;;20.91;68.43;100196.34;451326;117;921607;-74
2021/09/01 00:13:30;;;;;;;;;;;;;;;20.89;68.37;100188.34;451029;118;921670;-75
2021/09/01 00:14:33;;;;;;;;;;;;;;;20.87;68.47;100201.66;450669;117;921620;-75
2021/09/01 00:15:36;;;;;;;;;;;;;;;20.87;68.36;100204.42;450467;117;921652;-75
2021/09/01 00:16:40;;;;;;;;;;;;;;;20.84;68.41;100191.14;448934;118;921625;-76
2021/09/01 00:17:42;;;;;;;;;;;;;;;20.84;68.44;100190.34;442090;120;921602;-74
2021/09/01 00:18:45;;;;;;;;;;;;;;;20.82;68.25;100187.84;447926;116;921694;-74
2021/09/01 00:19:49;;;;;;;;;;;;;;;20.80;68.27;100198.39;445565;118;921455;-75
2021/09/01 00:20:52;;;;;;;;;;;;;;;20.78;68.40;100198.67;445926;119;921598;-74
2021/09/01 00:21:56;;;;;;;;;;;;;;;20.78;68.43;100203.41;451424;116;921570;-75
2021/09/01 00:22:59;;;;;;;;;;;;;;;20.77;68.41;100196.21;451018;117;922010;-75
2021/09/01 00:24:02;;;;;;;;;;;;;;;20.76;68.38;100198.16;446192;117;921558;-74
2021/09/01 00:25:06;;;;;;;;;;;;;;;20.74;68.34;100197.61;446183;119;921539;-75
2021/09/01 00:26:09;;;;;;;;;;;;;;;20.73;68.26;100200.69;445166;117;921587;-74
2021/09/01 00:27:13;;;;;;;;;;;;;;;20.72;68.37;100199.03;444637;118;922030;-75
2021/09/01 00:28:16;;;;;;;;;;;;;;;20.71;68.43;100194.60;450518;117;921538;-75
2021/09/01 00:29:19;;;;;;;;;;;;;;;20.69;68.68;100196.83;451526;118;921519;-75
2021/09/01 00:30:22;;;;;;;;;;;;;;;20.69;68.45;100200.42;450462;117;921561;-75
2021/09/01 00:31:26;;;;;;;;;;;;;;;20.67;68.19;100199.08;450575;117;921551;-76
2021/09/01 00:32:29;;;;;;;;;;;;;;;20.67;68.26;100207.39;450877;117;921573;-74
2021/09/01 00:33:32;;;;;;;;;;;;;;;20.65;68.37;100192.99;443530;119;921605;-76
2021/09/01 00:34:35;;;;;;;;;;;;;;;20.64;68.36;100197.70;443478;118;921532;-75
2021/09/01 00:35:38;;;;;;;;;;;;;;;20.61;68.23;100203.84;443449;120;921459;-76
2021/09/01 00:36:42;;;;;;;;;;;;;;;20.59;68.32;100205.23;444459;120;921561;-75
2021/09/01 00:37:45;;;;;;;;;;;;;;;20.56;68.44;100206.66;444221;119;921589;-75
2021/09/01 00:38:48;;;;;;;;;;;;;;;20.56;68.48;100205.83;435131;121;921820;-74
2021/09/01 00:39:51;;;;;;;;;;;;;;;20.54;68.44;100208.05;445638;119;921447;-75
2021/09/01 00:40:55;;;;;;;;;;;;;;;20.52;68.45;100201.96;440947;120;921514;-73
2021/09/01 00:42:00;;;;;;;;;;;;;;;20.50;68.54;100199.50;440244;120;921546;-75
2021/09/01 00:43:03;;;;;;;;;;;;;;;20.48;68.50;100198.95;438694;120;921596;-74
2021/09/01 00:44:17;;;;;;;;;;;;;;;20.46;68.56;100203.11;442044;120;921456;-75
2021/09/01 00:45:20;;;;;;;;;;;;;;;20.42;68.66;100205.64;440105;119;921548;-75
2021/09/01 00:46:24;;;;;;;;;;;;;;;20.40;68.81;100202.33;441286;120;921537;-74
2021/09/01 00:47:27;;;;;;;;;;;;;;;20.37;68.80;100203.75;439947;120;921541;-74
2021/09/01 00:48:30;;;;;;;;;;;;;;;20.36;68.66;100204.03;440375;120;921730;-76
2021/09/01 00:49:33;;;;;;;;;;;;;;;20.32;68.69;100206.55;440710;119;921551;-74
2021/09/01 00:50:37;;;;;;;;;;;;;;;20.28;68.81;100205.45;440387;120;921480;-74
2021/09/01 00:51:41;;;;;;;;;;;;;;;20.26;68.94;100202.14;435949;122;921421;-75
2021/09/01 00:52:44;;;;;;;;;;;;;;;20.25;69.06;100211.55;442057;118;921993;-74
2021/09/01 00:53:48;;;;;;;;;;;;;;;20.25;69.17;100207.95;442337;119;921649;-75
2021/09/01 00:54:51;;;;;;;;;;;;;;;20.24;69.16;100209.06;433593;121;921577;-75
2021/09/01 00:55:58;;;;;;;;;;;;;;;20.24;69.17;100211.83;440503;120;921420;-74
2021/09/01 00:57:03;;;;;;;;;;;;;;;20.23;69.22;100211.00;439706;119;921583;-74
2021/09/01 00:58:06;;;;;;;;;;;;;;;20.22;69.31;100208.55;444431;119;921604;-75
2021/09/01 00:59:10;;;;;;;;;;;;;;;20.21;69.24;100213.25;443635;119;921763;-75
2021/09/01 01:00:21;;;;;;;;;;;;;;;20.21;69.23;100207.71;436368;120;921557;-74
2021/09/01 01:01:19;;;;;;;;;;;;;;;20.20;69.17;100208.82;435494;120;922147;-74
2021/09/01 01:02:24;;;;;;;;;;;;;;;20.19;69.14;100211.87;438108;120;921927;-74
2021/09/01 01:03:27;;;;;;;;;;;;;;;20.18;69.15;100224.08;438540;120;921573;-74
2021/09/01 01:04:31;;;;;;;;;;;;;;;20.16;69.24;100216.05;433671;121;921662;-74
2021/09/01 01:05:34;;;;;;;;;;;;;;;20.16;69.18;100216.05;432078;120;921673;-74
2021/09/01 01:06:37;;;;;;;;;;;;;;;20.14;69.19;100214.67;433690;122;921534;-74
2021/09/01 01:07:40;;;;;;;;;;;;;;;20.13;69.26;100216.61;440179;121;921626;-73
2021/09/01 01:08:44;;;;;;;;;;;;;;;20.13;69.19;100224.09;439325;120;921509;-73
2021/09/01 01:09:48;;;;;;;;;;;;;;;20.11;69.15;100220.80;440333;120;921630;-75
2021/09/01 01:10:52;;;;;;;;;;;;;;;20.09;69.22;100221.08;439983;121;921552;-74
2021/09/01 01:12:00;;;;;;;;;;;;;;;20.08;69.39;100229.66;443591;120;921496;-74
2021/09/01 01:13:03;;;;;;;;;;;;;;;20.07;69.38;100226.05;436134;120;921649;-75
2021/09/01 01:14:06;;;;;;;;;;;;;;;20.06;69.42;100224.42;444184;119;921588;-74
2021/09/01 01:15:09;;;;;;;;;;;;;;;20.06;69.50;100224.42;436762;120;921563;-75
2021/09/01 01:16:13;;;;;;;;;;;;;;;20.06;69.43;100226.37;433747;122;921593;-73
2021/09/01 01:17:19;;;;;;;;;;;;;;;20.04;69.56;100218.34;434190;120;921668;-75
2021/09/01 01:18:22;;;;;;;;;;;;;;;20.04;69.66;100223.05;443670;119;921673;-74
2021/09/01 01:19:25;;;;;;;;;;;;;;;20.03;69.38;100218.62;443516;119;921624;-74
2021/09/01 01:20:30;;;;;;;;;;;;;;;20.02;69.37;100223.32;442958;118;921585;-75
2021/09/01 01:21:33;;;;;;;;;;;;;;;20.00;69.41;100225.56;443155;118;921562;-74
2021/09/01 01:22:36;;;;;;;;;;;;;;;19.97;69.26;100220.59;443466;118;921668;-75
2021/09/01 01:23:39;;;;;;;;;;;;;;;19.95;69.24;100222.83;443259;120;921532;-76
2021/09/01 01:24:44;;;;;;;;;;;;;;;19.92;69.20;100217.84;442595;118;921746;-74
2021/09/01 01:25:47;;;;;;;;;;;;;;;19.89;69.14;100222.03;443138;119;921602;-74
2021/09/01 01:26:50;;;;;;;;;;;;;;;19.86;69.21;100225.35;442296;118;921574;-75
2021/09/01 01:27:53;;;;;;;;;;;;;;;19.84;69.34;100224.83;442730;118;921698;-73
2021/09/01 01:29:01;;;;;;;;;;;;;;;19.82;69.29;100229.80;442390;120;921538;-76
2021/09/01 01:30:08;;;;;;;;;;;;;;;19.81;69.39;100230.91;443543;120;921606;-75
2021/09/01 01:31:11;;;;;;;;;;;;;;;19.79;69.41;100229.56;443401;119;921571;-75
2021/09/01 01:32:14;;;;;;;;;;;;;;;19.78;69.46;100230.66;442963;119;921609;-74
2021/09/01 01:33:18;;;;;;;;;;;;;;;19.78;69.60;100225.13;445119;117;921605;-75
2021/09/01 01:34:21;;;;;;;;;;;;;;;19.77;69.60;100227.06;450517;118;921523;-74
2021/09/01 01:35:31;;;;;;;;;;;;;;;19.78;69.60;100228.73;451020;118;921547;-75
2021/09/01 01:36:34;;;;;;;;;;;;;;;19.78;69.69;100234.27;451022;117;921584;-74
2021/09/01 01:37:40;;;;;;;;;;;;;;;19.79;69.56;100219.30;450200;117;921564;-75
2021/09/01 01:38:43;;;;;;;;;;;;;;;19.80;69.63;100229.25;451249;117;921604;-73
2021/09/01 01:39:46;;;;;;;;;;;;;;;19.80;69.68;100232.02;451239;117;921525;-75
2021/09/01 01:40:50;;;;;;;;;;;;;;;19.81;69.75;100222.61;450397;116;921634;-75
2021/09/01 01:41:53;;;;;;;;;;;;;;;19.82;69.61;100223.45;451115;118;921749;-74
2021/09/01 01:42:56;;;;;;;;;;;;;;;19.82;69.56;100221.51;450674;117;921677;-75
2021/09/01 01:43:59;;;;;;;;;;;;;;;19.82;69.55;100223.45;450975;117;922143;-75
2021/09/01 01:45:02;;;;;;;;;;;;;;;19.83;69.56;100222.34;450844;117;921541;-76
2021/09/01 01:46:07;;;;;;;;;;;;;;;19.83;69.56;100214.87;451092;118;921610;-76
2021/09/01 01:47:10;;;;;;;;;;;;;;;19.84;69.58;100222.06;450896;116;921513;-76
2021/09/01 01:48:14;;;;;;;;;;;;;;;19.85;69.53;100217.33;451044;117;921624;-75
2021/09/01 01:49:18;;;;;;;;;;;;;;;19.85;69.51;100220.09;450765;117;921841;-76
2021/09/01 01:50:21;;;;;;;;;;;;;;;19.86;69.49;100218.98;449804;117;921578;-75
2021/09/01 01:51:24;;;;;;;;;;;;;;;19.87;69.58;100215.95;451269;118;921577;-75
2021/09/01 01:52:28;;;;;;;;;;;;;;;19.88;69.54;100217.60;450800;117;921514;-75
2021/09/01 01:53:31;;;;;;;;;;;;;;;19.89;69.42;100212.91;451336;117;921520;-75
2021/09/01 01:54:35;;;;;;;;;;;;;;;19.90;69.41;100223.66;451254;118;921690;-76
2021/09/01 01:55:38;;;;;;;;;;;;;;;19.91;69.43;100211.48;450269;117;921718;-75
2021/09/01 01:56:41;;;;;;;;;;;;;;;19.93;69.39;100208.44;450454;117;921608;-76
2021/09/01 01:57:44;;;;;;;;;;;;;;;19.94;69.42;100212.87;448663;118;921984;-75
2021/09/01 01:58:47;;;;;;;;;;;;;;;19.94;69.36;100219.23;443619;118;921544;-76
2021/09/01 01:59:50;;;;;;;;;;;;;;;19.94;69.43;100215.63;443952;119;921529;-75
2021/09/01 02:00:53;;;;;;;;;;;;;;;19.95;69.47;100215.36;451265;116;921500;-75
2021/09/01 02:01:56;;;;;;;;;;;;;;;19.96;69.34;100225.29;452291;117;921557;-75
2021/09/01 02:03:00;;;;;;;;;;;;;;;19.97;69.27;100215.88;452246;117;921614;-73
2021/09/01 02:04:04;;;;;;;;;;;;;;;19.98;69.21;100217.55;451588;116;921581;-75
2021/09/01 02:05:07;;;;;;;;;;;;;;;19.99;69.11;100221.97;451721;116;921491;-75
2021/09/01 02:06:10;;;;;;;;;;;;;;;19.99;69.03;100223.91;451951;118;921641;-75
2021/09/01 02:07:14;;;;;;;;;;;;;;;20.00;68.87;100231.11;452392;118;921565;-75
2021/09/01 02:08:17;;;;;;;;;;;;;;;20.00;68.81;100225.56;451231;116;921573;-75
2021/09/01 02:09:20;;;;;;;;;;;;;;;19.99;68.80;100221.14;451764;117;921519;-75
2021/09/01 02:10:23;;;;;;;;;;;;;;;20.00;68.70;100225.56;452054;118;921517;-76
2021/09/01 02:11:26;;;;;;;;;;;;;;;19.99;68.62;100221.97;452075;117;921716;-76
2021/09/01 02:12:29;;;;;;;;;;;;;;;19.99;68.61;100230.27;452349;116;921587;-75
2021/09/01 02:13:32;;;;;;;;;;;;;;;20.01;68.62;100232.77;451665;118;921536;-75
2021/09/01 02:14:36;;;;;;;;;;;;;;;20.02;68.67;100236.33;452702;118;921578;-74
2021/09/01 02:15:39;;;;;;;;;;;;;;;20.02;68.78;100228.86;451894;116;921705;-75
2021/09/01 02:16:42;;;;;;;;;;;;;;;20.02;68.59;100231.62;452247;117;921544;-75
2021/09/01 02:17:45;;;;;;;;;;;;;;;20.02;68.52;100223.32;451571;117;921546;-75
2021/09/01 02:18:48;;;;;;;;;;;;;;;20.02;68.39;100226.09;451380;118;921547;-75
2021/09/01 02:19:52;;;;;;;;;;;;;;;20.02;68.40;100226.09;450510;117;921612;-75
2021/09/01 02:20:55;;;;;;;;;;;;;;;20.01;68.29;100230.00;450827;118;921473;-75
2021/09/01 02:21:58;;;;;;;;;;;;;;;19.99;68.26;100223.91;451418;118;921487;-75
2021/09/01 02:23:01;;;;;;;;;;;;;;;19.97;68.32;100231.66;450231;116;921541;-74
2021/09/01 02:24:05;;;;;;;;;;;;;;;19.97;68.13;100228.89;451254;117;921478;-75
2021/09/01 02:25:09;;;;;;;;;;;;;;;19.92;67.94;100226.98;450780;117;921668;-74
2021/09/01 02:26:12;;;;;;;;;;;;;;;19.87;67.92;100220.64;451064;117;921720;-75
2021/09/01 02:27:15;;;;;;;;;;;;;;;19.84;67.89;100229.53;447552;117;922003;-75
2021/09/01 02:28:18;;;;;;;;;;;;;;;19.80;67.98;100229.25;443441;118;921633;-74
2021/09/01 02:29:21;;;;;;;;;;;;;;;19.76;68.06;100230.94;444512;118;921591;-76
2021/09/01 02:30:25;;;;;;;;;;;;;;;19.73;68.13;100225.98;450164;117;921606;-74
2021/09/01 02:31:28;;;;;;;;;;;;;;;19.71;68.27;100232.91;445120;117;922163;-76
2021/09/01 02:32:31;;;;;;;;;;;;;;;19.68;68.39;100231.55;446112;118;921587;-75
2021/09/01 02:33:34;;;;;;;;;;;;;;;19.68;68.57;100236.25;448035;117;921541;-73
2021/09/01 02:34:37;;;;;;;;;;;;;;;19.66;68.67;100233.76;443390;119;921447;-75
2021/09/01 02:35:41;;;;;;;;;;;;;;;19.67;68.65;100231.82;442875;118;921745;-73
2021/09/01 02:36:44;;;;;;;;;;;;;;;19.65;68.60;100225.73;446990;118;921534;-75
2021/09/01 02:37:52;;;;;;;;;;;;;;;19.64;68.61;100235.97;442625;120;921487;-75
2021/09/01 02:38:52;;;;;;;;;;;;;;;19.62;68.64;100237.37;443401;118;921602;-75
2021/09/01 02:39:55;;;;;;;;;;;;;;;19.61;68.69;100238.48;447921;118;921583;-74
2021/09/01 02:40:58;;;;;;;;;;;;;;;19.59;68.69;100233.22;446242;118;921626;-75
2021/09/01 02:42:01;;;;;;;;;;;;;;;19.58;68.62;100237.92;444535;120;921504;-76
2021/09/01 02:43:04;;;;;;;;;;;;;;;19.56;68.61;100242.93;444162;118;921618;-73
2021/09/01 02:44:07;;;;;;;;;;;;;;;19.55;68.62;100249.56;442919;120;921566;-74
2021/09/01 02:45:10;;;;;;;;;;;;;;;19.53;68.61;100239.88;442839;119;921618;-75
2021/09/01 02:46:14;;;;;;;;;;;;;;;19.52;68.71;100249.28;442747;118;921531;-74
2021/09/01 02:47:17;;;;;;;;;;;;;;;19.50;68.69;100243.22;444909;118;921546;-75
2021/09/01 02:48:20;;;;;;;;;;;;;;;19.50;68.78;100251.52;444476;119;921646;-75
2021/09/01 02:49:23;;;;;;;;;;;;;;;19.49;68.83;100247.92;446844;119;921440;-75
2021/09/01 02:50:27;;;;;;;;;;;;;;;19.49;68.83;100249.86;444626;119;921545;-74
2021/09/01 02:51:30;;;;;;;;;;;;;;;19.48;68.87;100250.97;444597;118;921516;-75
2021/09/01 02:52:33;;;;;;;;;;;;;;;19.49;68.90;100252.62;446838;119;921550;-75
2021/09/01 02:53:36;;;;;;;;;;;;;;;19.49;69.04;100258.98;443331;118;922096;-75
2021/09/01 02:54:39;;;;;;;;;;;;;;;19.49;69.23;100253.45;453315;116;921588;-73
2021/09/01 02:55:42;;;;;;;;;;;;;;;19.49;69.33;100256.22;453094;116;922091;-74
2021/09/01 02:56:46;;;;;;;;;;;;;;;19.50;69.26;100260.65;446814;119;921684;-75
2021/09/01 02:57:49;;;;;;;;;;;;;;;19.50;69.32;100252.35;442520;118;921454;-75
2021/09/01 02:58:52;;;;;;;;;;;;;;;19.52;69.36;100254.81;449534;116;921605;-73
2021/09/01 02:59:55;;;;;;;;;;;;;;;19.52;69.37;100255.64;446907;117;921542;-73
2021/09/01 03:00:58;;;;;;;;;;;;;;;19.53;69.22;100257.30;449719;116;921632;-74
2021/09/01 03:02:02;;;;;;;;;;;;;;;19.53;69.06;100257.30;442178;119;921778;-74
2021/09/01 03:03:05;;;;;;;;;;;;;;;19.54;69.04;100260.91;450238;116;921594;-74
2021/09/01 03:04:09;;;;;;;;;;;;;;;19.55;69.13;100259.80;448302;117;921982;-73
2021/09/01 03:05:12;;;;;;;;;;;;;;;19.55;69.15;100260.63;447679;118;921572;-73
2021/09/01 03:06:15;;;;;;;;;;;;;;;19.56;68.99;100258.69;448853;117;921578;-74
2021/09/01 03:07:18;;;;;;;;;;;;;;;19.55;68.90;100260.63;448610;117;921507;-75
2021/09/01 03:08:22;;;;;;;;;;;;;;;19.56;68.84;100255.92;447741;117;921637;-74
2021/09/01 03:09:25;;;;;;;;;;;;;;;19.55;68.81;100260.63;448056;118;921553;-74
2021/09/01 03:10:28;;;;;;;;;;;;;;;19.55;68.84;100259.80;448033;117;921487;-75
2021/09/01 03:11:31;;;;;;;;;;;;;;;19.56;68.92;100262.29;443743;118;921595;-75
2021/09/01 03:12:34;;;;;;;;;;;;;;;19.57;68.81;100260.36;445228;117;921685;-73
2021/09/01 03:13:37;;;;;;;;;;;;;;;19.57;68.68;100261.16;446337;118;921576;-74
2021/09/01 03:14:40;;;;;;;;;;;;;;;19.57;68.55;100269.45;443538;118;921844;-73
2021/09/01 03:15:43;;;;;;;;;;;;;;;19.56;68.49;100259.52;445014;118;921966;-74
2021/09/01 03:16:47;;;;;;;;;;;;;;;19.56;68.50;100264.22;445542;119;921573;-74
2021/09/01 03:17:50;;;;;;;;;;;;;;;19.54;68.64;100261.73;443804;119;921732;-75
2021/09/01 03:18:53;;;;;;;;;;;;;;;19.54;68.73;100269.20;446307;117;921712;-73
2021/09/01 03:19:56;;;;;;;;;;;;;;;19.55;68.61;100266.16;449304;117;921650;-73
2021/09/01 03:20:59;;;;;;;;;;;;;;;19.55;68.46;100268.92;444657;120;921603;-74
2021/09/01 03:22:03;;;;;;;;;;;;;;;19.54;68.54;100270.03;443486;120;921424;-75
2021/09/01 03:23:06;;;;;;;;;;;;;;;19.54;68.52;100264.50;443043;119;921662;-75
2021/09/01 03:24:09;;;;;;;;;;;;;;;19.55;68.61;100265.33;446871;119;921558;-74
2021/09/01 03:25:12;;;;;;;;;;;;;;;19.55;68.60;100271.69;444830;118;921474;-74
2021/09/01 03:26:15;;;;;;;;;;;;;;;19.55;68.55;100271.69;444100;118;921679;-74
2021/09/01 03:27:18;;;;;;;;;;;;;;;19.54;68.63;100278.33;446023;118;921650;-74
2021/09/01 03:28:23;;;;;;;;;;;;;;;19.55;68.62;100277.22;448309;118;921750;-75
2021/09/01 03:29:29;;;;;;;;;;;;;;;19.55;68.60;100276.39;443236;119;921574;-74
2021/09/01 03:30:31;;;;;;;;;;;;;;;19.56;68.59;100278.88;441921;118;921642;-73
2021/09/01 03:31:34;;;;;;;;;;;;;;;19.57;68.51;100285.25;452525;117;921572;-74
2021/09/01 03:32:37;;;;;;;;;;;;;;;19.57;68.42;100279.72;452754;116;921676;-73
2021/09/01 03:33:40;;;;;;;;;;;;;;;19.58;68.33;100286.88;447043;117;921664;-73
2021/09/01 03:34:43;;;;;;;;;;;;;;;19.58;68.34;100279.41;441836;118;921743;-75
2021/09/01 03:35:47;;;;;;;;;;;;;;;19.58;68.40;100278.58;451072;117;921613;-74
2021/09/01 03:36:50;;;;;;;;;;;;;;;19.58;68.41;100284.94;450819;117;921604;-75
2021/09/01 03:37:53;;;;;;;;;;;;;;;19.58;68.58;100278.58;450812;117;921614;-75
2021/09/01 03:38:56;;;;;;;;;;;;;;;19.59;68.56;100280.23;449955;116;921605;-73
2021/09/01 03:40:00;;;;;;;;;;;;;;;19.61;68.52;100293.80;451202;118;921743;-73
2021/09/01 03:41:03;;;;;;;;;;;;;;;19.61;68.53;100286.33;451234;116;921585;-74
2021/09/01 03:42:07;;;;;;;;;;;;;;;19.62;68.45;100292.70;450961;117;921877;-76
2021/09/01 03:43:10;;;;;;;;;;;;;;;19.62;68.48;100289.93;449695;117;922292;-73
2021/09/01 03:44:13;;;;;;;;;;;;;;;19.60;68.47;100292.97;450144;118;921422;-74
2021/09/01 03:45:16;;;;;;;;;;;;;;;19.60;68.50;100286.60;449086;118;921562;-75
2021/09/01 03:46:19;;;;;;;;;;;;;;;19.58;68.57;100290.47;442813;119;921532;-75
2021/09/01 03:47:22;;;;;;;;;;;;;;;19.58;68.44;100290.47;451697;117;921488;-75
2021/09/01 03:48:25;;;;;;;;;;;;;;;19.58;68.47;100298.77;445182;118;921402;-74
2021/09/01 03:49:28;;;;;;;;;;;;;;;19.58;68.46;100297.94;451261;117;921601;-74
2021/09/01 03:50:31;;;;;;;;;;;;;;;19.58;68.42;100296.00;444856;119;921517;-72
2021/09/01 03:51:35;;;;;;;;;;;;;;;19.60;68.44;100297.67;440760;120;921603;-75
2021/09/01 03:52:38;;;;;;;;;;;;;;;19.60;68.46;100298.50;441831;120;921696;-71
2021/09/01 03:53:41;;;;;;;;;;;;;;;19.62;68.50;100295.46;444060;118;921588;-75
2021/09/01 03:54:44;;;;;;;;;;;;;;;19.63;68.52;100302.66;442446;119;921599;-73
2021/09/01 03:55:47;;;;;;;;;;;;;;;19.63;68.40;100305.42;441965;120;921580;-73
2021/09/01 03:56:51;;;;;;;;;;;;;;;19.62;68.33;100307.36;440731;120;921724;-75
2021/09/01 03:57:54;;;;;;;;;;;;;;;19.62;68.34;100300.99;443693;118;921766;-74
2021/09/01 03:58:57;;;;;;;;;;;;;;;19.60;68.35;100301.27;442471;120;921651;-75
2021/09/01 04:00:00;;;;;;;;;;;;;;;19.61;68.42;100302.09;443472;118;921574;-73
2021/09/01 04:01:05;;;;;;;;;;;;;;;19.61;68.55;100302.92;444942;119;921533;-75
2021/09/01 04:02:09;;;;;;;;;;;;;;;19.62;68.58;100300.99;445812;118;921670;-73
2021/09/01 04:03:12;;;;;;;;;;;;;;;19.63;68.63;100302.66;429012;122;921588;-74
2021/09/01 04:04:16;;;;;;;;;;;;;;;19.64;68.59;100307.05;436784;119;921652;-74
2021/09/01 04:05:19;;;;;;;;;;;;;;;19.67;68.71;100309.27;445434;117;921714;-75
2021/09/01 04:06:23;;;;;;;;;;;;;;;19.69;68.87;100307.03;445058;119;921721;-75
2021/09/01 04:07:26;;;;;;;;;;;;;;;19.70;68.92;100308.70;444062;120;921523;-73
2021/09/01 04:08:29;;;;;;;;;;;;;;;19.71;68.90;100311.19;444202;117;921475;-73
2021/09/01 04:09:33;;;;;;;;;;;;;;;19.74;68.80;100301.48;443912;119;921754;-74
2021/09/01 04:10:38;;;;;;;;;;;;;;;19.75;68.65;100308.67;443405;118;921697;-74
2021/09/01 04:11:41;;;;;;;;;;;;;;;19.75;68.54;100305.91;444361;118;921531;-73
2021/09/01 04:12:44;;;;;;;;;;;;;;;19.76;68.33;100308.41;444186;118;921453;-75
2021/09/01 04:13:48;;;;;;;;;;;;;;;19.77;68.30;100303.70;443908;118;921546;-74
2021/09/01 04:14:51;;;;;;;;;;;;;;;19.78;68.25;100305.36;452146;117;921601;-74
2021/09/01 04:15:54;;;;;;;;;;;;;;;19.79;68.18;100309.80;444309;119;921626;-74
2021/09/01 04:16:58;;;;;;;;;;;;;;;19.79;68.11;100307.83;444463;119;921588;-74
2021/09/01 04:18:01;;;;;;;;;;;;;;;19.78;68.14;100302.59;443612;119;921743;-72
2021/09/01 04:19:04;;;;;;;;;;;;;;;19.78;68.20;100303.42;446422;117;921531;-74
2021/09/01 04:20:08;;;;;;;;;;;;;;;19.80;68.25;100308.66;447304;117;921529;-73
2021/09/01 04:21:11;;;;;;;;;;;;;;;19.81;68.32;100307.55;450709;116;921756;-75
2021/09/01 04:22:14;;;;;;;;;;;;;;;19.81;68.33;100313.91;444616;119;921658;-73
2021/09/01 04:23:18;;;;;;;;;;;;;;;19.81;68.11;100311.14;443516;119;921526;-74
2021/09/01 04:24:21;;;;;;;;;;;;;;;19.82;67.97;100300.91;441722;119;921573;-75
2021/09/01 04:25:24;;;;;;;;;;;;;;;19.82;68.03;100314.75;450886;116;921603;-73
2021/09/01 04:26:27;;;;;;;;;;;;;;;19.82;68.13;100307.28;446539;117;921546;-75
2021/09/01 04:27:31;;;;;;;;;;;;;;;19.82;67.90;100310.05;443315;120;921599;-73
2021/09/01 04:28:34;;;;;;;;;;;;;;;19.83;67.80;100303.41;443819;117;921719;-74
2021/09/01 04:29:37;;;;;;;;;;;;;;;19.83;67.75;100305.34;450281;117;922114;-74
2021/09/01 04:30:40;;;;;;;;;;;;;;;19.84;67.75;100299.53;442945;120;921631;-72
2021/09/01 04:31:44;;;;;;;;;;;;;;;19.84;67.88;100307.00;448955;118;921542;-74
2021/09/01 04:32:47;;;;;;;;;;;;;;;19.84;68.00;100309.77;442408;119;921726;-76
2021/09/01 04:33:51;;;;;;;;;;;;;;;19.85;68.04;100303.09;442384;118;921532;-73
2021/09/01 04:34:54;;;;;;;;;;;;;;;19.86;68.20;100302.83;442265;118;921718;-74
2021/09/01 04:35:57;;;;;;;;;;;;;;;19.88;68.05;100305.31;450886;116;921652;-75
2021/09/01 04:37:01;;;;;;;;;;;;;;;19.90;67.84;100303.11;446663;117;921705;-77
2021/09/01 04:38:04;;;;;;;;;;;;;;;19.89;67.69;100304.21;442577;118;921626;-78
2021/09/01 04:39:07;;;;;;;;;;;;;;;19.90;67.62;100303.11;443214;118;921475;-75
2021/09/01 04:40:11;;;;;;;;;;;;;;;19.89;67.58;100301.45;442253;118;921663;-75
2021/09/01 04:41:14;;;;;;;;;;;;;;;19.88;67.50;100310.85;442777;119;921556;-84
2021/09/01 04:42:20;;;;;;;;;;;;;;;19.89;67.51;100315.28;443496;119;921572;-75
2021/09/01 04:43:23;;;;;;;;;;;;;;;19.88;67.53;100300.62;441475;119;921575;-76
2021/09/01 04:44:27;;;;;;;;;;;;;;;19.88;67.62;100305.31;449962;117;921561;-75
2021/09/01 04:45:30;;;;;;;;;;;;;;;19.88;67.81;100311.69;446360;117;921548;-76
2021/09/01 04:46:33;;;;;;;;;;;;;;;19.89;68.00;100306.98;445937;117;921594;-76
2021/09/01 04:47:36;;;;;;;;;;;;;;;19.90;68.09;100309.44;446585;117;922078;-77
2021/09/01 04:48:40;;;;;;;;;;;;;;;19.92;68.05;100312.77;450028;117;921696;-75
2021/09/01 04:49:43;;;;;;;;;;;;;;;19.94;68.16;100312.49;450411;117;921664;-77
2021/09/01 04:50:46;;;;;;;;;;;;;;;19.96;68.36;100307.48;451205;117;921812;-77
2021/09/01 04:51:50;;;;;;;;;;;;;;;19.97;68.44;100306.38;450878;117;921546;-77
2021/09/01 04:52:55;;;;;;;;;;;;;;;19.98;68.31;100314.41;450179;115;921618;-78
2021/09/01 04:53:58;;;;;;;;;;;;;;;19.99;68.35;100309.70;447456;118;921598;-74
2021/09/01 04:55:01;;;;;;;;;;;;;;;20.00;68.40;100314.13;442039;120;921599;-74
2021/09/01 04:56:05;;;;;;;;;;;;;;;20.03;68.18;100307.18;451386;116;921694;-75
2021/09/01 04:57:08;;;;;;;;;;;;;;;20.04;67.99;100306.91;442145;119;921547;-76
2021/09/01 04:58:13;;;;;;;;;;;;;;;20.06;67.90;100309.40;445973;119;921498;-73
2021/09/01 04:59:16;;;;;;;;;;;;;;;20.07;67.96;100308.30;441818;118;921584;-73
2021/09/01 05:00:20;;;;;;;;;;;;;;;20.08;68.07;100307.98;451274;117;921728;-75
2021/09/01 05:01:23;;;;;;;;;;;;;;;20.10;68.17;100304.94;451688;117;921515;-74
2021/09/01 05:02:27;;;;;;;;;;;;;;;20.10;68.23;100313.25;444261;118;921582;-73
2021/09/01 05:03:30;;;;;;;;;;;;;;;20.11;68.23;100310.20;451410;117;921481;-72
2021/09/01 05:04:33;;;;;;;;;;;;;;;20.12;68.26;100306.33;444770;118;921570;-73
2021/09/01 05:05:37;;;;;;;;;;;;;;;20.14;68.24;100304.08;450868;117;921678;-75
2021/09/01 05:06:40;;;;;;;;;;;;;;;20.15;68.36;100305.74;445637;118;921580;-75
2021/09/01 05:07:44;;;;;;;;;;;;;;;20.16;68.47;100304.64;451047;116;921639;-77
2021/09/01 05:08:47;;;;;;;;;;;;;;;20.17;68.49;100303.53;450896;117;921579;-77
2021/09/01 05:09:50;;;;;;;;;;;;;;;20.19;68.54;100303.22;444577;118;921511;-78
2021/09/01 05:10:53;;;;;;;;;;;;;;;20.21;68.21;100295.47;442311;119;921643;-74
2021/09/01 05:11:57;;;;;;;;;;;;;;;20.21;68.14;100299.07;445396;118;921696;-75
2021/09/01 05:13:00;;;;;;;;;;;;;;;20.24;68.12;100300.42;446340;118;921505;-75
2021/09/01 05:14:03;;;;;;;;;;;;;;;20.26;68.19;100300.98;442611;119;921637;-74
2021/09/01 05:15:06;;;;;;;;;;;;;;;20.26;67.96;100312.88;450287;116;921586;-74
2021/09/01 05:16:10;;;;;;;;;;;;;;;20.29;67.84;100303.16;450195;116;921513;-75
2021/09/01 05:17:13;;;;;;;;;;;;;;;20.29;67.89;100303.99;449933;117;921526;-75
2021/09/01 05:18:16;;;;;;;;;;;;;;;20.32;67.74;100305.41;450979;117;921534;-76
2021/09/01 05:19:19;;;;;;;;;;;;;;;20.32;67.71;100300.70;441818;118;921526;-75
2021/09/01 05:20:23;;;;;;;;;;;;;;;20.33;67.61;100307.91;443270;118;921612;-74
2021/09/01 05:21:28;;;;;;;;;;;;;;;20.34;67.53;100308.73;448495;118;921555;-73
2021/09/01 05:22:32;;;;;;;;;;;;;;;20.34;67.53;100305.96;443588;119;921767;-74